createdAt,value
2023-05-24T00:00:55.712Z,-73
2023-05-24T00:03:23.940Z,-73
2023-05-24T00:05:52.445Z,-74
2023-05-24T00:08:20.659Z,-73
2023-05-24T00:10:49.298Z,-72
2023-05-24T00:13:17.721Z,-73
2023-05-24T00:15:45.903Z,-73
2023-05-24T00:18:14.124Z,-74
2023-05-24T00:20:42.747Z,-73
2023-05-24T00:23:11.315Z,-73
2023-05-24T00:25:39.546Z,-74
2023-05-24T00:28:07.723Z,-73
2023-05-24T00:30:36.271Z,-73
2023-05-24T00:33:04.522Z,-73
2023-05-24T00:35:32.756Z,-73
2023-05-24T00:38:00.993Z,-74
2023-05-24T00:40:29.243Z,-74
2023-05-24T00:42:57.584Z,-75
2023-05-24T00:45:25.879Z,-74
2023-05-24T00:47:54.382Z,-73
2023-05-24T00:50:22.683Z,-73
2023-05-24T00:52:52.328Z,-73
2023-05-24T00:55:20.813Z,-73
2023-05-24T00:57:49.161Z,-72
2023-05-24T01:00:17.653Z,-72
2023-05-24T01:02:48.277Z,-72
2023-05-24T01:05:17.480Z,-72
2023-05-24T01:08:04.757Z,-73
2023-05-24T01:10:56.814Z,-72
2023-05-24T01:13:55.398Z,-72
2023-05-24T01:16:35.119Z,-72
2023-05-24T01:19:26.084Z,-73
2023-05-24T01:22:33.833Z,-71
2023-05-24T01:25:14.210Z,-72
2023-05-24T01:27:42.769Z,-72
2023-05-24T01:30:11.098Z,-74
2023-05-24T01:32:39.410Z,-74
2023-05-24T01:35:07.639Z,-74
2023-05-24T01:37:35.833Z,-74
2023-05-24T01:40:04.389Z,-74
2023-05-24T01:42:44.380Z,-74
2023-05-24T01:45:32.298Z,-74
2023-05-24T01:48:20.702Z,-72
2023-05-24T01:51:02.140Z,-73
2023-05-24T01:53:35.505Z,-72
2023-05-24T01:56:06.525Z,-72
2023-05-24T01:58:35.599Z,-74
2023-05-24T02:01:04.284Z,-73
2023-05-24T02:03:32.762Z,-71
2023-05-24T02:06:01.070Z,-73
2023-05-24T02:08:29.271Z,-73
2023-05-24T02:10:57.481Z,-72
2023-05-24T02:13:25.737Z,-71
2023-05-24T02:15:54.831Z,-72
2023-05-24T02:18:23.044Z,-72
2023-05-24T02:20:51.290Z,-72
2023-05-24T02:23:19.490Z,-74
2023-05-24T02:25:47.760Z,-73
2023-05-24T02:28:16.018Z,-73
2023-05-24T02:30:44.894Z,-73
2023-05-24T02:33:13.388Z,-73
2023-05-24T02:35:42.348Z,-73
2023-05-24T02:38:10.537Z,-73
2023-05-24T02:40:38.840Z,-74
2023-05-24T02:43:07.028Z,-73
2023-05-24T02:45:36.547Z,-73
2023-05-24T02:48:04.896Z,-72
2023-05-24T02:50:33.294Z,-74
2023-05-24T02:53:01.540Z,-73
2023-05-24T02:55:30.029Z,-74
2023-05-24T02:57:58.306Z,-74
2023-05-24T03:00:26.554Z,-74
2023-05-24T03:02:56.907Z,-72
2023-05-24T03:05:25.186Z,-72
2023-05-24T03:07:53.428Z,-72
2023-05-24T03:10:21.698Z,-71
2023-05-24T03:12:49.961Z,-70
2023-05-24T03:15:18.147Z,-71
2023-05-24T03:17:46.892Z,-71
2023-05-24T03:20:15.964Z,-71
2023-05-24T03:22:44.316Z,-69
2023-05-24T03:25:12.482Z,-70
2023-05-24T03:27:40.870Z,-70
2023-05-24T03:30:09.817Z,-70
2023-05-24T03:32:38.218Z,-70
2023-05-24T03:35:06.393Z,-71
2023-05-24T03:37:34.611Z,-70
2023-05-24T03:40:04.522Z,-71
2023-05-24T03:42:32.708Z,-70
2023-05-24T03:45:00.928Z,-70
2023-05-24T03:47:29.142Z,-70
2023-05-24T03:49:58.127Z,-71
2023-05-24T03:52:26.825Z,-70
2023-05-24T03:54:55.750Z,-70
2023-05-24T03:57:23.992Z,-70
2023-05-24T03:59:52.211Z,-71
2023-05-24T04:02:20.442Z,-72
2023-05-24T04:04:48.715Z,-72
2023-05-24T04:07:16.905Z,-70
2023-05-24T04:09:45.251Z,-70
2023-05-24T04:12:13.434Z,-70
2023-05-24T04:14:41.630Z,-70
2023-05-24T04:17:10.237Z,-69
2023-05-24T04:19:38.507Z,-70
2023-05-24T04:22:06.843Z,-70
2023-05-24T04:24:35.052Z,-69
2023-05-24T04:27:03.360Z,-69
2023-05-24T04:29:33.293Z,-70
2023-05-24T04:32:02.292Z,-69
2023-05-24T04:34:33.787Z,-70
2023-05-24T04:37:02.706Z,-70
2023-05-24T04:39:31.506Z,-70
2023-05-24T04:42:00.650Z,-70
2023-05-24T04:44:28.850Z,-70
2023-05-24T04:46:57.801Z,-70
2023-05-24T04:49:26.174Z,-70
2023-05-24T04:51:55.292Z,-70
2023-05-24T04:54:23.882Z,-70
2023-05-24T04:56:52.197Z,-70
2023-05-24T04:59:20.442Z,-70
2023-05-24T05:01:48.988Z,-70
2023-05-24T05:04:17.245Z,-70
2023-05-24T05:06:45.492Z,-71
2023-05-24T05:09:14.842Z,-70
2023-05-24T05:11:43.326Z,-70
2023-05-24T05:14:11.735Z,-70
2023-05-24T05:16:41.261Z,-70
2023-05-24T05:19:09.788Z,-70
2023-05-24T05:21:39.727Z,-70
2023-05-24T05:24:08.025Z,-70
2023-05-24T05:26:36.337Z,-70
2023-05-24T05:29:04.621Z,-70
2023-05-24T05:31:32.885Z,-69
2023-05-24T05:34:01.100Z,-70
2023-05-24T05:36:29.308Z,-70
2023-05-24T05:38:57.646Z,-70
2023-05-24T05:41:26.152Z,-69
2023-05-24T05:43:54.330Z,-70
2023-05-24T05:46:22.634Z,-70
2023-05-24T05:48:51.085Z,-70
2023-05-24T05:51:19.272Z,-69
2023-05-24T05:53:47.563Z,-69
2023-05-24T05:56:15.747Z,-69
2023-05-24T05:58:43.903Z,-70
2023-05-24T06:01:12.216Z,-69
2023-05-24T06:03:40.608Z,-69
2023-05-24T06:06:08.652Z,-69
2023-05-24T06:08:37.173Z,-69
2023-05-24T06:11:05.511Z,-69
2023-05-24T06:13:33.821Z,-69
2023-05-24T06:16:02.194Z,-69
2023-05-24T06:18:32.458Z,-69
2023-05-24T06:21:00.872Z,-69
2023-05-24T06:23:29.029Z,-69
2023-05-24T06:25:57.249Z,-69
2023-05-24T06:28:25.680Z,-69
2023-05-24T06:30:53.938Z,-69
2023-05-24T06:33:22.383Z,-69
2023-05-24T06:35:50.891Z,-69
2023-05-24T06:38:19.077Z,-69
2023-05-24T06:40:47.284Z,-69
2023-05-24T06:43:16.181Z,-69
2023-05-24T06:45:44.423Z,-69
2023-05-24T06:48:12.802Z,-69
2023-05-24T06:50:42.554Z,-69
2023-05-24T06:53:11.459Z,-70
2023-05-24T06:55:39.804Z,-70
2023-05-24T06:58:08.322Z,-69
2023-05-24T07:00:36.510Z,-69
2023-05-24T07:03:04.890Z,-69
2023-05-24T07:05:33.167Z,-69
2023-05-24T07:08:01.910Z,-70
2023-05-24T07:10:30.114Z,-69
2023-05-24T07:12:58.469Z,-69
2023-05-24T07:15:26.795Z,-69
2023-05-24T07:17:55.283Z,-69
2023-05-24T07:20:23.527Z,-70
2023-05-24T07:22:52.003Z,-69
2023-05-24T07:25:20.220Z,-70
2023-05-24T07:27:48.424Z,-70
2023-05-24T07:30:31.103Z,-69
2023-05-24T07:33:01.661Z,-69
2023-05-24T07:35:31.104Z,-69
2023-05-24T07:37:59.369Z,-70
2023-05-24T07:40:27.635Z,-69
2023-05-24T07:42:56.111Z,-69
2023-05-24T07:45:24.290Z,-69
2023-05-24T07:47:54.509Z,-69
2023-05-24T07:50:24.933Z,-69
2023-05-24T07:52:53.158Z,-70
2023-05-24T07:55:21.695Z,-69
2023-05-24T07:57:49.979Z,-69
2023-05-24T08:00:18.607Z,-69
2023-05-24T08:02:47.324Z,-69
2023-05-24T08:05:16.782Z,-70
2023-05-24T08:07:45.662Z,-69
2023-05-24T08:10:14.248Z,-69
2023-05-24T08:12:42.894Z,-69
2023-05-24T08:15:11.338Z,-69
2023-05-24T08:17:42.647Z,-69
2023-05-24T08:20:14.382Z,-70
2023-05-24T08:22:42.926Z,-69
2023-05-24T08:25:12.120Z,-69
2023-05-24T08:27:40.503Z,-69
2023-05-24T08:30:09.635Z,-70
2023-05-24T08:32:38.460Z,-69
2023-05-24T08:35:19.405Z,-69
2023-05-24T08:37:50.040Z,-69
2023-05-24T08:40:18.069Z,-70
2023-05-24T08:42:46.933Z,-69
2023-05-24T08:45:16.396Z,-69
2023-05-24T08:47:47.196Z,-69
2023-05-24T08:50:15.503Z,-69
2023-05-24T08:52:45.056Z,-69
2023-05-24T08:55:13.538Z,-69
2023-05-24T08:57:41.981Z,-70
2023-05-24T09:00:12.791Z,-69
2023-05-24T09:02:43.002Z,-69
2023-05-24T09:05:17.048Z,-69
2023-05-24T09:07:46.584Z,-69
2023-05-24T09:10:14.986Z,-69
2023-05-24T09:12:49.733Z,-69
2023-05-24T09:15:17.997Z,-69
2023-05-24T09:17:46.410Z,-70
2023-05-24T09:20:15.469Z,-69
2023-05-24T09:22:44.310Z,-70
2023-05-24T09:25:15.372Z,-69
2023-05-24T09:27:50.904Z,-70
2023-05-24T09:30:19.109Z,-69
2023-05-24T09:33:01.863Z,-69
2023-05-24T09:35:31.322Z,-70
2023-05-24T09:38:00.738Z,-68
2023-05-24T09:40:29.732Z,-69
2023-05-24T09:43:09.010Z,-69
2023-05-24T09:45:49.310Z,-69
2023-05-24T09:48:18.575Z,-69
2023-05-24T09:50:58.268Z,-69
2023-05-24T09:53:26.767Z,-69
2023-05-24T09:55:56.133Z,-70
2023-05-24T09:58:24.635Z,-70
2023-05-24T10:00:53.336Z,-69
2023-05-24T10:03:21.644Z,-70
2023-05-24T10:05:51.056Z,-70
2023-05-24T10:08:20.318Z,-70
2023-05-24T10:10:48.552Z,-70
2023-05-24T10:13:18.570Z,-68
2023-05-24T10:15:46.885Z,-67
2023-05-24T10:18:15.452Z,-67
2023-05-24T10:20:44.601Z,-69
2023-05-24T10:23:21.336Z,-69
2023-05-24T10:25:56.490Z,-68
2023-05-24T10:28:25.927Z,-69
2023-05-24T10:31:12.263Z,-69
2023-05-24T10:33:40.968Z,-69
2023-05-24T10:36:12.225Z,-68
2023-05-24T10:38:41.366Z,-69
2023-05-24T10:41:10.357Z,-69
2023-05-24T10:43:39.381Z,-69
2023-05-24T10:46:11.332Z,-69
2023-05-24T10:48:43.025Z,-69
2023-05-24T10:51:38.732Z,-69
2023-05-24T10:54:21.493Z,-69
2023-05-24T10:56:52.227Z,-69
2023-05-24T10:59:39.008Z,-69
2023-05-24T11:02:13.872Z,-69
2023-05-24T11:04:44.806Z,-69
2023-05-24T11:07:15.288Z,-69
2023-05-24T11:09:47.082Z,-69
2023-05-24T11:12:20.728Z,-69
2023-05-24T11:14:53.483Z,-69
2023-05-24T11:17:25.194Z,-69
2023-05-24T11:19:56.790Z,-69
2023-05-24T11:22:26.752Z,-69
2023-05-24T11:24:57.044Z,-69
2023-05-24T11:27:26.055Z,-69
2023-05-24T11:29:55.827Z,-69
2023-05-24T11:32:25.122Z,-69
2023-05-24T11:34:53.576Z,-68
2023-05-24T11:37:31.568Z,-69
2023-05-24T11:40:10.109Z,-68
2023-05-24T11:42:39.248Z,-69
2023-05-24T11:45:10.099Z,-68
2023-05-24T11:47:39.864Z,-68
2023-05-24T11:50:08.572Z,-70
2023-05-24T11:52:41.443Z,-69
2023-05-24T11:55:15.705Z,-71
2023-05-24T11:57:53.480Z,-70
2023-05-24T12:00:28.338Z,-71
2023-05-24T12:03:01.778Z,-69
2023-05-24T12:05:31.767Z,-70
2023-05-24T12:08:09.333Z,-70
2023-05-24T12:10:40.446Z,-70
2023-05-24T12:13:24.265Z,-70
2023-05-24T12:15:57.025Z,-71
2023-05-24T12:18:27.190Z,-71
2023-05-24T12:20:55.839Z,-70
2023-05-24T12:23:29.695Z,-71
2023-05-24T12:26:01.792Z,-70
2023-05-24T12:28:39.125Z,-70
2023-05-24T12:31:08.571Z,-71
2023-05-24T12:33:36.815Z,-70
2023-05-24T12:36:09.918Z,-70
2023-05-24T12:38:38.222Z,-71
2023-05-24T12:41:13.558Z,-70
2023-05-24T12:43:44.635Z,-69
2023-05-24T12:46:13.145Z,-70
2023-05-24T12:48:41.407Z,-70
2023-05-24T12:51:09.967Z,-70
2023-05-24T12:53:38.176Z,-70
2023-05-24T12:56:06.678Z,-70
2023-05-24T12:58:35.093Z,-70
2023-05-24T13:01:03.311Z,-70
2023-05-24T13:03:31.562Z,-70
2023-05-24T13:06:00.439Z,-70
2023-05-24T13:08:30.071Z,-71
2023-05-24T13:10:58.273Z,-70
2023-05-24T13:13:26.467Z,-70
2023-05-24T13:15:54.706Z,-70
2023-05-24T13:18:22.932Z,-70
2023-05-24T13:20:51.777Z,-69
2023-05-24T13:23:20.020Z,-70
2023-05-24T13:25:48.306Z,-70
2023-05-24T13:28:16.557Z,-70
2023-05-24T13:30:45.042Z,-70
2023-05-24T13:33:13.513Z,-70
2023-05-24T13:35:42.191Z,-69
2023-05-24T13:38:10.720Z,-70
2023-05-24T13:40:41.538Z,-70
2023-05-24T13:43:10.743Z,-70
2023-05-24T13:45:38.975Z,-71
2023-05-24T13:48:07.280Z,-70
2023-05-24T13:50:36.915Z,-71
2023-05-24T13:53:06.260Z,-71
2023-05-24T13:55:37.693Z,-70
2023-05-24T13:58:06.216Z,-69
2023-05-24T14:00:36.080Z,-70
2023-05-24T14:03:05.155Z,-69
2023-05-24T14:05:33.674Z,-70
2023-05-24T14:08:06.354Z,-69
2023-05-24T14:10:38.486Z,-69
2023-05-24T14:15:38.982Z,-69
2023-05-24T14:18:08.526Z,-72
2023-05-24T14:20:38.625Z,-69
2023-05-24T14:23:10.390Z,-69
2023-05-24T14:25:38.700Z,-69
2023-05-24T14:28:08.406Z,-69
2023-05-24T14:30:37.868Z,-69
2023-05-24T14:33:08.118Z,-70
2023-05-24T14:35:39.565Z,-69
2023-05-24T14:38:10.116Z,-70
2023-05-24T14:40:39.847Z,-69
2023-05-24T14:43:10.315Z,-69
2023-05-24T14:45:41.201Z,-70
2023-05-24T14:48:11.411Z,-69
2023-05-24T14:50:40.501Z,-70
2023-05-24T14:53:11.845Z,-69
2023-05-24T14:55:41.054Z,-70
2023-05-24T14:58:11.399Z,-70
2023-05-24T15:00:40.298Z,-70
2023-05-24T15:03:09.315Z,-70
2023-05-24T15:05:38.159Z,-69
2023-05-24T15:08:07.982Z,-70
2023-05-24T15:10:36.516Z,-70
2023-05-24T15:13:05.284Z,-70
2023-05-24T15:15:33.525Z,-69
2023-05-24T15:18:01.751Z,-71
2023-05-24T15:20:29.999Z,-71
2023-05-24T15:22:58.203Z,-70
2023-05-24T15:25:26.420Z,-70
2023-05-24T15:27:54.807Z,-70
2023-05-24T15:30:24.095Z,-70
2023-05-24T15:32:52.370Z,-70
2023-05-24T15:35:20.769Z,-70
2023-05-24T15:37:49.104Z,-70
2023-05-24T15:40:18.590Z,-71
2023-05-24T15:42:46.803Z,-70
2023-05-24T15:45:15.035Z,-70
2023-05-24T15:47:43.384Z,-70
2023-05-24T15:50:12.476Z,-70
2023-05-24T15:52:40.699Z,-70
2023-05-24T15:55:09.281Z,-70
2023-05-24T15:57:37.503Z,-70
2023-05-24T16:00:05.706Z,-71
2023-05-24T16:02:33.926Z,-70
2023-05-24T16:05:02.199Z,-71
2023-05-24T16:07:30.431Z,-71
2023-05-24T16:09:58.634Z,-71
2023-05-24T16:12:26.941Z,-71
2023-05-24T16:14:55.167Z,-71
2023-05-24T16:17:23.402Z,-70
2023-05-24T16:19:51.622Z,-69
2023-05-24T16:22:19.847Z,-70
2023-05-24T16:24:48.025Z,-69
2023-05-24T16:27:16.272Z,-69
2023-05-24T16:29:45.543Z,-69
2023-05-24T16:32:14.117Z,-70
2023-05-24T16:34:55.963Z,-70
2023-05-24T16:37:25.539Z,-70
2023-05-24T16:39:53.792Z,-70
2023-05-24T16:42:22.158Z,-71
2023-05-24T16:44:52.675Z,-71
2023-05-24T16:47:21.218Z,-70
2023-05-24T16:49:49.259Z,-70
2023-05-24T16:52:17.481Z,-70
2023-05-24T16:54:45.857Z,-69
2023-05-24T16:57:14.187Z,-69
2023-05-24T16:59:42.823Z,-69
2023-05-24T17:02:11.161Z,-70
2023-05-24T17:04:39.437Z,-70
2023-05-24T17:07:07.675Z,-69
2023-05-24T17:09:35.943Z,-70
2023-05-24T17:12:04.244Z,-70
2023-05-24T17:14:32.839Z,-69
2023-05-24T17:17:01.050Z,-69
2023-05-24T17:19:29.259Z,-69
2023-05-24T17:21:57.518Z,-71
2023-05-24T17:24:27.673Z,-71
2023-05-24T17:26:56.014Z,-70
2023-05-24T17:29:26.358Z,-69
2023-05-24T17:31:54.675Z,-69
2023-05-24T17:34:22.904Z,-70
2023-05-24T17:36:51.076Z,-70
2023-05-24T17:39:20.041Z,-69
2023-05-24T17:41:48.257Z,-71
2023-05-24T17:44:17.502Z,-70
2023-05-24T17:46:45.957Z,-69
2023-05-24T17:49:14.639Z,-69
2023-05-24T17:51:42.896Z,-71
2023-05-24T17:54:11.105Z,-69
2023-05-24T17:56:39.488Z,-69
2023-05-24T17:59:07.720Z,-69
2023-05-24T18:01:36.384Z,-69
2023-05-24T18:04:06.297Z,-68
2023-05-24T18:06:37.480Z,-69
2023-05-24T18:09:05.723Z,-69
2023-05-24T18:11:34.173Z,-70
2023-05-24T18:14:03.833Z,-69
2023-05-24T18:16:32.397Z,-68
2023-05-24T18:19:00.653Z,-67
2023-05-24T18:21:28.824Z,-68
2023-05-24T18:23:57.088Z,-67
2023-05-24T18:26:25.273Z,-68
2023-05-24T18:28:53.436Z,-67
2023-05-24T18:31:21.910Z,-69
2023-05-24T18:33:50.239Z,-68
2023-05-24T18:36:18.429Z,-68
2023-05-24T18:38:47.468Z,-68
2023-05-24T18:41:16.537Z,-68
2023-05-24T18:43:44.930Z,-68
2023-05-24T18:46:14.888Z,-68
2023-05-24T18:48:43.428Z,-68
2023-05-24T18:51:11.681Z,-68
2023-05-24T18:53:40.070Z,-68
2023-05-24T18:56:08.502Z,-69
2023-05-24T18:58:36.727Z,-69
2023-05-24T19:01:04.982Z,-69
2023-05-24T19:03:33.357Z,-68
2023-05-24T19:06:01.570Z,-68
2023-05-24T19:08:29.809Z,-69
2023-05-24T19:10:57.808Z,-71
2023-05-24T19:13:27.407Z,-68
2023-05-24T19:15:55.609Z,-68
2023-05-24T19:18:23.859Z,-69
2023-05-24T19:20:52.377Z,-68
2023-05-24T19:23:21.196Z,-68
2023-05-24T19:25:50.337Z,-68
2023-05-24T19:28:18.807Z,-68
2023-05-24T19:30:47.004Z,-68
2023-05-24T19:33:15.236Z,-69
2023-05-24T19:35:43.610Z,-69
2023-05-24T19:38:12.047Z,-68
2023-05-24T19:40:40.286Z,-68
2023-05-24T19:43:08.925Z,-68
2023-05-24T19:45:37.115Z,-68
2023-05-24T19:48:06.908Z,-68
2023-05-24T19:50:36.038Z,-68
2023-05-24T19:53:04.257Z,-71
2023-05-24T19:55:32.564Z,-68
2023-05-24T19:58:00.757Z,-69
2023-05-24T20:00:28.959Z,-69
2023-05-24T20:02:57.219Z,-69
2023-05-24T20:05:25.696Z,-68
2023-05-24T20:07:53.888Z,-68
2023-05-24T20:10:22.109Z,-69
2023-05-24T20:12:50.294Z,-69
2023-05-24T20:15:18.479Z,-69
2023-05-24T20:17:46.805Z,-69
2023-05-24T20:20:15.187Z,-68
2023-05-24T20:22:43.579Z,-68
2023-05-24T20:25:11.563Z,-68
2023-05-24T20:27:43.601Z,-68
2023-05-24T20:30:13.052Z,-70
2023-05-24T20:32:41.511Z,-68
2023-05-24T20:35:10.241Z,-68
2023-05-24T20:37:38.769Z,-69
2023-05-24T20:40:07.464Z,-68
2023-05-24T20:42:35.700Z,-68
2023-05-24T20:45:04.311Z,-68
2023-05-24T20:47:32.566Z,-68
2023-05-24T20:50:00.978Z,-66
2023-05-24T20:52:29.278Z,-67
2023-05-24T20:54:57.573Z,-68
2023-05-24T20:57:25.903Z,-69
2023-05-24T20:59:54.160Z,-68
2023-05-24T21:02:23.187Z,-69
2023-05-24T21:04:51.594Z,-67
2023-05-24T21:07:19.907Z,-68
2023-05-24T21:09:48.192Z,-67
2023-05-24T21:12:16.461Z,-66
2023-05-24T21:14:45.069Z,-67
2023-05-24T21:17:13.408Z,-67
2023-05-24T21:19:41.437Z,-68
2023-05-24T21:22:09.635Z,-67
2023-05-24T21:24:38.098Z,-67
2023-05-24T21:27:06.598Z,-67
2023-05-24T21:29:37.847Z,-67
2023-05-24T21:32:05.807Z,-68
2023-05-24T21:34:34.027Z,-69
2023-05-24T21:37:02.194Z,-69
2023-05-24T21:39:30.412Z,-68
2023-05-24T21:41:58.711Z,-68
2023-05-24T21:44:26.954Z,-68
2023-05-24T21:46:55.681Z,-68
2023-05-24T21:49:24.096Z,-68
2023-05-24T21:51:52.346Z,-67
2023-05-24T21:54:20.887Z,-68
2023-05-24T21:56:49.142Z,-68
2023-05-24T21:59:17.381Z,-68
2023-05-24T22:01:45.637Z,-68
2023-05-24T22:04:14.104Z,-67
2023-05-24T22:06:42.704Z,-68
2023-05-24T22:09:11.400Z,-68
2023-05-24T22:11:40.898Z,-68
2023-05-24T22:14:10.404Z,-68
2023-05-24T22:16:38.769Z,-67
2023-05-24T22:19:16.919Z,-67
2023-05-24T22:21:50.243Z,-67
2023-05-24T22:24:18.514Z,-67
2023-05-24T22:26:47.618Z,-68
2023-05-24T22:29:16.605Z,-68
2023-05-24T22:31:45.046Z,-67
2023-05-24T22:34:13.723Z,-67
2023-05-24T22:36:42.126Z,-67
2023-05-24T22:39:10.398Z,-67
2023-05-24T22:41:38.662Z,-67
2023-05-24T22:44:06.853Z,-68
2023-05-24T22:46:35.231Z,-68
2023-05-24T22:49:06.132Z,-68
2023-05-24T22:51:34.672Z,-68
2023-05-24T22:54:02.865Z,-68
2023-05-24T22:56:32.244Z,-68
2023-05-24T22:59:00.468Z,-68
2023-05-24T23:01:28.802Z,-69
2023-05-24T23:04:07.772Z,-67
2023-05-24T23:06:45.712Z,-67
2023-05-24T23:09:14.255Z,-67
2023-05-24T23:11:42.871Z,-67
2023-05-24T23:14:11.591Z,-68
2023-05-24T23:16:45.487Z,-66
2023-05-24T23:19:19.066Z,-67
2023-05-24T23:21:47.484Z,-67
2023-05-24T23:24:16.021Z,-69
2023-05-24T23:26:44.478Z,-68
2023-05-24T23:29:12.855Z,-67
2023-05-24T23:31:41.257Z,-68
2023-05-24T23:34:09.677Z,-67
2023-05-24T23:36:37.874Z,-68
2023-05-24T23:39:06.130Z,-67
2023-05-24T23:41:34.820Z,-67
2023-05-24T23:44:03.040Z,-68
2023-05-24T23:46:31.342Z,-67
2023-05-24T23:48:59.708Z,-67
2023-05-24T23:51:27.937Z,-67
2023-05-24T23:53:56.163Z,-67
2023-05-24T23:56:24.380Z,-67
2023-05-24T23:58:52.877Z,-66
